sensor_id;sensor_type;location;lat;lon;timestamp;pressure;altitude;pressure_sealevel;temperature;humidity
6567;BME280;3317;43.994;22.878;2022-09-17T00:00:21;99900.28;;;25.08;52.28
6567;BME280;3317;43.994;22.878;2022-09-17T00:02:49;99895.53;;;25.03;52.57
6567;BME280;3317;43.994;22.878;2022-09-17T00:05:21;99907.44;;;25.03;52.69
6567;BME280;3317;43.994;22.878;2022-09-17T00:07:49;99906.06;;;25.01;53.24
6567;BME280;3317;43.994;22.878;2022-09-17T00:10:17;99908.00;;;25.00;53.01
6567;BME280;3317;43.994;22.878;2022-09-17T00:12:45;99902.72;;;24.99;53.31
6567;BME280;3317;43.994;22.878;2022-09-17T00:15:12;99895.50;;;24.98;53.42
6567;BME280;3317;43.994;22.878;2022-09-17T00:17:42;99890.50;;;24.95;52.93
6567;BME280;3317;43.994;22.878;2022-09-17T00:20:10;99888.84;;;24.94;53.19
6567;BME280;3317;43.994;22.878;2022-09-17T00:22:38;99882.19;;;24.89;53.42
6567;BME280;3317;43.994;22.878;2022-09-17T00:25:06;99876.66;;;24.89;53.24
6567;BME280;3317;43.994;22.878;2022-09-17T00:27:34;99883.00;;;24.90;52.68
6567;BME280;3317;43.994;22.878;2022-09-17T00:30:01;99874.97;;;24.88;53.08
6567;BME280;3317;43.994;22.878;2022-09-17T00:32:29;99857.50;;;24.83;51.93
6567;BME280;3317;43.994;22.878;2022-09-17T00:34:59;99861.66;;;24.85;52.24
6567;BME280;3317;43.994;22.878;2022-09-17T00:37:26;99857.50;;;24.83;51.70
6567;BME280;3317;43.994;22.878;2022-09-17T00:39:53;99865.53;;;24.84;53.49
6567;BME280;3317;43.994;22.878;2022-09-17T00:42:21;99859.44;;;24.82;52.10
6567;BME280;3317;43.994;22.878;2022-09-17T00:44:50;99861.38;;;24.82;52.92
6567;BME280;3317;43.994;22.878;2022-09-17T00:47:24;99864.41;;;24.80;52.59
6567;BME280;3317;43.994;22.878;2022-09-17T00:49:55;99851.94;;;24.78;52.96
6567;BME280;3317;43.994;22.878;2022-09-17T00:52:26;99843.28;;;24.69;52.67
6567;BME280;3317;43.994;22.878;2022-09-17T00:55:02;99852.44;;;24.74;53.13
6567;BME280;3317;43.994;22.878;2022-09-17T00:57:31;99854.66;;;24.72;53.61
6567;BME280;3317;43.994;22.878;2022-09-17T00:59:58;99860.44;;;24.71;52.03
6567;BME280;3317;43.994;22.878;2022-09-17T01:02:25;99861.56;;;24.70;51.32
6567;BME280;3317;43.994;22.878;2022-09-17T01:04:53;99856.56;;;24.67;53.00
6567;BME280;3317;43.994;22.878;2022-09-17T01:07:45;99851.03;;;24.67;52.89
6567;BME280;3317;43.994;22.878;2022-09-17T01:10:27;99860.69;;;24.64;53.44
6567;BME280;3317;43.994;22.878;2022-09-17T01:13:08;99854.59;;;24.62;53.91
6567;BME280;3317;43.994;22.878;2022-09-17T01:15:49;99847.66;;;24.59;53.44
6567;BME280;3317;43.994;22.878;2022-09-17T01:18:26;99843.50;;;24.57;52.29
6567;BME280;3317;43.994;22.878;2022-09-17T01:21:22;99857.91;;;24.54;52.19
6567;BME280;3317;43.994;22.878;2022-09-17T01:24:20;99864.50;;;24.53;52.80
6567;BME280;3317;43.994;22.878;2022-09-17T01:27:20;99855.34;;;24.47;54.01
6567;BME280;3317;43.994;22.878;2022-09-17T01:30:03;99846.47;;;24.45;52.90
6567;BME280;3317;43.994;22.878;2022-09-17T01:32:41;99839.25;;;24.39;54.27
6567;BME280;3317;43.994;22.878;2022-09-17T01:35:16;99837.22;;;24.24;55.63
6567;BME280;3317;43.994;22.878;2022-09-17T01:37:49;99848.00;;;24.20;54.77
6567;BME280;3317;43.994;22.878;2022-09-17T01:40:23;99819.13;;;24.05;54.58
6567;BME280;3317;43.994;22.878;2022-09-17T01:42:57;99819.72;;;24.13;54.93
6567;BME280;3317;43.994;22.878;2022-09-17T01:45:29;99802.25;;;24.07;55.86
6567;BME280;3317;43.994;22.878;2022-09-17T01:48:03;99795.31;;;24.04;56.10
6567;BME280;3317;43.994;22.878;2022-09-17T01:50:46;99790.88;;;24.03;55.31
6567;BME280;3317;43.994;22.878;2022-09-17T01:53:16;99785.88;;;24.00;55.58
6567;BME280;3317;43.994;22.878;2022-09-17T01:55:45;99792.50;;;23.99;55.35
6567;BME280;3317;43.994;22.878;2022-09-17T01:58:18;99778.63;;;23.94;55.66
6567;BME280;3317;43.994;22.878;2022-09-17T02:00:51;99754.00;;;23.93;55.72
6567;BME280;3317;43.994;22.878;2022-09-17T02:03:24;99756.47;;;23.89;57.21
6567;BME280;3317;43.994;22.878;2022-09-17T02:05:57;99755.84;;;23.76;57.77
6567;BME280;3317;43.994;22.878;2022-09-17T02:08:28;99750.78;;;23.68;57.82
6567;BME280;3317;43.994;22.878;2022-09-17T02:11:06;99739.13;;;23.61;57.79
6567;BME280;3317;43.994;22.878;2022-09-17T02:13:37;99743.25;;;23.58;58.06
6567;BME280;3317;43.994;22.878;2022-09-17T02:16:09;99731.88;;;23.55;58.52
6567;BME280;3317;43.994;22.878;2022-09-17T02:18:44;99736.59;;;23.54;57.86
6567;BME280;3317;43.994;22.878;2022-09-17T02:21:17;99734.09;;;23.53;58.20
6567;BME280;3317;43.994;22.878;2022-09-17T02:23:51;99724.69;;;23.54;57.70
6567;BME280;3317;43.994;22.878;2022-09-17T02:26:23;99724.13;;;23.52;57.04
6567;BME280;3317;43.994;22.878;2022-09-17T02:28:55;99722.22;;;23.52;57.39
6567;BME280;3317;43.994;22.878;2022-09-17T02:31:25;99725.78;;;23.53;57.35
6567;BME280;3317;43.994;22.878;2022-09-17T02:33:57;99712.25;;;23.51;58.59
6567;BME280;3317;43.994;22.878;2022-09-17T02:36:26;99665.84;;;23.20;57.66
6567;BME280;3317;43.994;22.878;2022-09-17T02:38:58;99720.81;;;23.49;56.69
6567;BME280;3317;43.994;22.878;2022-09-17T02:41:35;99712.50;;;23.49;57.67
6567;BME280;3317;43.994;22.878;2022-09-17T02:44:08;99700.59;;;23.44;57.28
6567;BME280;3317;43.994;22.878;2022-09-17T02:46:54;99692.59;;;23.47;56.63
6567;BME280;3317;43.994;22.878;2022-09-17T02:52:38;99669.31;;;23.43;58.55
6567;BME280;3317;43.994;22.878;2022-09-17T02:55:16;99655.78;;;23.42;57.67
6567;BME280;3317;43.994;22.878;2022-09-17T02:57:46;99648.00;;;23.33;58.94
6567;BME280;3317;43.994;22.878;2022-09-17T03:00:19;99647.13;;;23.28;58.75
6567;BME280;3317;43.994;22.878;2022-09-17T03:02:49;99641.25;;;23.24;58.50
6567;BME280;3317;43.994;22.878;2022-09-17T03:05:20;99658.13;;;23.23;57.88
6567;BME280;3317;43.994;22.878;2022-09-17T03:07:49;99657.00;;;23.24;57.99
6567;BME280;3317;43.994;22.878;2022-09-17T03:10:17;99649.81;;;23.23;57.61
6567;BME280;3317;43.994;22.878;2022-09-17T03:12:44;99648.97;;;23.22;57.71
6567;BME280;3317;43.994;22.878;2022-09-17T03:15:11;99658.13;;;23.23;57.28
6567;BME280;3317;43.994;22.878;2022-09-17T03:17:38;99656.69;;;23.20;57.81
6567;BME280;3317;43.994;22.878;2022-09-17T03:20:05;99637.06;;;23.16;57.04
6567;BME280;3317;43.994;22.878;2022-09-17T03:22:33;99599.59;;;22.93;57.38
6567;BME280;3317;43.994;22.878;2022-09-17T03:25:01;99607.66;;;23.00;58.23
6567;BME280;3317;43.994;22.878;2022-09-17T03:27:28;99644.09;;;22.97;58.39
6567;BME280;3317;43.994;22.878;2022-09-17T03:29:55;99637.94;;;22.89;58.78
6567;BME280;3317;43.994;22.878;2022-09-17T03:32:22;99618.59;;;22.84;58.42
6567;BME280;3317;43.994;22.878;2022-09-17T03:34:49;99640.69;;;22.84;57.34
6567;BME280;3317;43.994;22.878;2022-09-17T03:37:16;99646.19;;;22.84;57.97
6567;BME280;3317;43.994;22.878;2022-09-17T03:39:43;99635.16;;;22.84;58.63
6567;BME280;3317;43.994;22.878;2022-09-17T03:42:11;99634.91;;;22.86;58.52
6567;BME280;3317;43.994;22.878;2022-09-17T03:44:38;99649.53;;;22.86;57.72
6567;BME280;3317;43.994;22.878;2022-09-17T03:47:05;99649.53;;;22.86;58.56
6567;BME280;3317;43.994;22.878;2022-09-17T03:49:32;99652.28;;;22.86;58.75
6567;BME280;3317;43.994;22.878;2022-09-17T03:52:00;99646.75;;;22.86;58.88
6567;BME280;3317;43.994;22.878;2022-09-17T03:54:26;99628.78;;;22.84;58.17
6567;BME280;3317;43.994;22.878;2022-09-17T03:56:54;99621.59;;;22.83;58.22
6567;BME280;3317;43.994;22.878;2022-09-17T03:59:22;99629.31;;;22.81;58.46
6567;BME280;3317;43.994;22.878;2022-09-17T04:01:49;99621.03;;;22.81;58.28
6567;BME280;3317;43.994;22.878;2022-09-17T04:04:18;99603.25;;;22.66;58.41
6567;BME280;3317;43.994;22.878;2022-09-17T04:06:45;99624.06;;;22.79;57.53
6567;BME280;3317;43.994;22.878;2022-09-17T04:09:12;99631.50;;;22.78;57.22
6567;BME280;3317;43.994;22.878;2022-09-17T04:11:39;99628.44;;;22.75;57.91
6567;BME280;3317;43.994;22.878;2022-09-17T04:14:06;99643.91;;;22.76;58.82
6567;BME280;3317;43.994;22.878;2022-09-17T04:16:34;99627.88;;;22.73;58.30
6567;BME280;3317;43.994;22.878;2022-09-17T04:19:01;99628.72;;;22.73;58.17
6567;BME280;3317;43.994;22.878;2022-09-17T04:21:28;99635.59;;;22.71;57.96
6567;BME280;3317;43.994;22.878;2022-09-17T04:23:55;99632.81;;;22.71;58.65
6567;BME280;3317;43.994;22.878;2022-09-17T04:26:22;99633.34;;;22.68;58.76
6567;BME280;3317;43.994;22.878;2022-09-17T04:28:49;99628.88;;;22.61;59.03
6567;BME280;3317;43.994;22.878;2022-09-17T04:31:16;99629.97;;;22.60;58.95
6567;BME280;3317;43.994;22.878;2022-09-17T04:33:44;99635.47;;;22.60;59.27
6567;BME280;3317;43.994;22.878;2022-09-17T04:36:11;99644.00;;;22.59;59.25
6567;BME280;3317;43.994;22.878;2022-09-17T04:38:38;99647.06;;;22.57;59.29
6567;BME280;3317;43.994;22.878;2022-09-17T04:41:05;99648.69;;;22.53;58.85
6567;BME280;3317;43.994;22.878;2022-09-17T04:43:33;99634.28;;;22.51;58.15
6567;BME280;3317;43.994;22.878;2022-09-17T04:46:00;99652.50;;;22.52;57.17
6567;BME280;3317;43.994;22.878;2022-09-17T04:48:27;99658.56;;;22.49;57.87
6567;BME280;3317;43.994;22.878;2022-09-17T04:50:56;99649.66;;;22.47;57.09
6567;BME280;3317;43.994;22.878;2022-09-17T04:53:23;99672.84;;;22.46;57.65
6567;BME280;3317;43.994;22.878;2022-09-17T04:55:50;99680.88;;;22.47;57.94
6567;BME280;3317;43.994;22.878;2022-09-17T04:58:16;99692.69;;;22.43;56.93
6567;BME280;3317;43.994;22.878;2022-09-17T05:00:43;99692.41;;;22.44;58.27
6567;BME280;3317;43.994;22.878;2022-09-17T05:03:10;99692.94;;;22.41;58.57
6567;BME280;3317;43.994;22.878;2022-09-17T05:05:38;99676.13;;;22.43;57.40
6567;BME280;3317;43.994;22.878;2022-09-17T05:08:06;99684.34;;;22.37;57.70
6567;BME280;3317;43.994;22.878;2022-09-17T05:10:34;99693.78;;;22.42;57.19
6567;BME280;3317;43.994;22.878;2022-09-17T05:13:01;99694.59;;;22.42;57.58
6567;BME280;3317;43.994;22.878;2022-09-17T05:15:27;99705.66;;;22.42;58.08
6567;BME280;3317;43.994;22.878;2022-09-17T05:17:55;99710.91;;;22.44;58.39
6567;BME280;3317;43.994;22.878;2022-09-17T05:20:22;99696.28;;;22.43;58.10
6567;BME280;3317;43.994;22.878;2022-09-17T05:22:50;99702.56;;;22.39;58.13
6567;BME280;3317;43.994;22.878;2022-09-17T05:25:20;99726.09;;;22.46;57.46
6567;BME280;3317;43.994;22.878;2022-09-17T05:27:50;99736.41;;;22.51;57.90
6567;BME280;3317;43.994;22.878;2022-09-17T05:30:17;99727.72;;;22.42;59.57
6567;BME280;3317;43.994;22.878;2022-09-17T05:32:44;99749.03;;;22.47;60.61
6567;BME280;3317;43.994;22.878;2022-09-17T05:35:11;99746.28;;;22.47;60.13
6567;BME280;3317;43.994;22.878;2022-09-17T05:37:39;99741.72;;;22.35;60.37
6567;BME280;3317;43.994;22.878;2022-09-17T05:40:07;99759.22;;;22.46;60.51
6567;BME280;3317;43.994;22.878;2022-09-17T05:42:36;99755.66;;;22.46;60.62
6567;BME280;3317;43.994;22.878;2022-09-17T05:45:04;99750.22;;;22.51;61.02
6567;BME280;3317;43.994;22.878;2022-09-17T05:47:31;99742.47;;;22.48;60.82
6567;BME280;3317;43.994;22.878;2022-09-17T05:49:59;99753.88;;;22.57;60.44
6567;BME280;3317;43.994;22.878;2022-09-17T05:52:26;99742.34;;;22.60;60.24
6567;BME280;3317;43.994;22.878;2022-09-17T05:54:54;99747.34;;;22.63;61.65
6567;BME280;3317;43.994;22.878;2022-09-17T05:57:22;99765.88;;;22.68;60.22
6567;BME280;3317;43.994;22.878;2022-09-17T05:59:50;99759.84;;;22.71;61.35
6567;BME280;3317;43.994;22.878;2022-09-17T06:02:17;99747.50;;;22.78;61.20
6567;BME280;3317;43.994;22.878;2022-09-17T06:04:44;99756.09;;;22.82;62.34
6567;BME280;3317;43.994;22.878;2022-09-17T06:07:11;99757.81;;;22.88;62.69
6567;BME280;3317;43.994;22.878;2022-09-17T06:09:38;99744.06;;;22.93;62.51
6567;BME280;3317;43.994;22.878;2022-09-17T06:12:06;99740.00;;;23.01;62.03
6567;BME280;3317;43.994;22.878;2022-09-17T06:14:33;99744.75;;;23.06;62.72
6567;BME280;3317;43.994;22.878;2022-09-17T06:17:02;99737.34;;;23.12;63.21
6567;BME280;3317;43.994;22.878;2022-09-17T06:19:29;99744.78;;;23.11;62.68
6567;BME280;3317;43.994;22.878;2022-09-17T06:21:56;99749.78;;;23.14;62.87
6567;BME280;3317;43.994;22.878;2022-09-17T06:24:23;99752.28;;;23.16;63.21
6567;BME280;3317;43.994;22.878;2022-09-17T06:26:51;99751.72;;;23.14;63.13
6567;BME280;3317;43.994;22.878;2022-09-17T06:29:18;99760.81;;;23.14;64.01
6567;BME280;3317;43.994;22.878;2022-09-17T06:31:46;99764.13;;;23.11;63.92
6567;BME280;3317;43.994;22.878;2022-09-17T06:34:15;99763.03;;;23.12;63.63
6567;BME280;3317;43.994;22.878;2022-09-17T06:36:42;99760.25;;;23.12;63.06
6567;BME280;3317;43.994;22.878;2022-09-17T06:39:09;99750.94;;;23.18;61.89
6567;BME280;3317;43.994;22.878;2022-09-17T06:41:36;99702.00;;;22.86;64.09
6567;BME280;3317;43.994;22.878;2022-09-17T06:44:03;99755.41;;;23.25;62.39
6567;BME280;3317;43.994;22.878;2022-09-17T06:46:30;99749.94;;;23.30;62.04
6567;BME280;3317;43.994;22.878;2022-09-17T06:48:57;99738.81;;;23.25;62.95
6567;BME280;3317;43.994;22.878;2022-09-17T06:51:26;99750.31;;;23.39;61.66
6567;BME280;3317;43.994;22.878;2022-09-17T06:53:53;99754.19;;;23.38;62.96
6567;BME280;3317;43.994;22.878;2022-09-17T06:56:19;99759.75;;;23.48;62.28
6567;BME280;3317;43.994;22.878;2022-09-17T06:58:46;99760.13;;;23.57;61.79
6567;BME280;3317;43.994;22.878;2022-09-17T07:01:13;99766.50;;;23.62;61.88
6567;BME280;3317;43.994;22.878;2022-09-17T07:03:41;99776.28;;;23.70;62.70
6567;BME280;3317;43.994;22.878;2022-09-17T07:06:09;99779.63;;;23.77;62.24
6567;BME280;3317;43.994;22.878;2022-09-17T07:08:38;99780.19;;;23.80;61.58
6567;BME280;3317;43.994;22.878;2022-09-17T07:11:06;99792.13;;;23.85;61.19
6567;BME280;3317;43.994;22.878;2022-09-17T07:13:34;99768.63;;;23.88;60.98
6567;BME280;3317;43.994;22.878;2022-09-17T07:16:02;99772.56;;;23.97;61.22
6567;BME280;3317;43.994;22.878;2022-09-17T07:18:29;99775.13;;;24.04;61.37
6567;BME280;3317;43.994;22.878;2022-09-17T07:20:57;99760.19;;;24.05;60.99
6567;BME280;3317;43.994;22.878;2022-09-17T07:23:26;99753.88;;;24.10;61.11
6567;BME280;3317;43.994;22.878;2022-09-17T07:25:56;99760.56;;;24.24;60.67
6567;BME280;3317;43.994;22.878;2022-09-17T07:28:24;99761.69;;;24.33;60.56
6567;BME280;3317;43.994;22.878;2022-09-17T07:30:52;99751.53;;;24.50;59.28
6567;BME280;3317;43.994;22.878;2022-09-17T07:33:21;99738.56;;;24.66;58.61
6567;BME280;3317;43.994;22.878;2022-09-17T07:35:52;99731.44;;;24.80;58.28
6567;BME280;3317;43.994;22.878;2022-09-17T07:38:20;99743.09;;;24.93;57.99
6567;BME280;3317;43.994;22.878;2022-09-17T07:40:55;99737.84;;;25.01;57.92
6567;BME280;3317;43.994;22.878;2022-09-17T07:43:22;99747.28;;;25.11;58.05
6567;BME280;3317;43.994;22.878;2022-09-17T07:45:49;99728.44;;;25.13;58.04
6567;BME280;3317;43.994;22.878;2022-09-17T07:48:17;99727.03;;;25.21;57.47
6567;BME280;3317;43.994;22.878;2022-09-17T07:50:44;99734.28;;;25.27;57.29
6567;BME280;3317;43.994;22.878;2022-09-17T07:53:11;99730.38;;;25.33;57.17
6567;BME280;3317;43.994;22.878;2022-09-17T07:55:38;99728.16;;;25.35;56.39
6567;BME280;3317;43.994;22.878;2022-09-17T07:58:07;99746.19;;;25.53;55.89
6567;BME280;3317;43.994;22.878;2022-09-17T08:00:34;99754.78;;;25.72;55.50
6567;BME280;3317;43.994;22.878;2022-09-17T08:03:01;99748.97;;;25.74;56.02
6567;BME280;3317;43.994;22.878;2022-09-17T08:05:28;99751.72;;;25.84;54.92
6567;BME280;3317;43.994;22.878;2022-09-17T08:07:55;99746.44;;;25.93;54.59
6567;BME280;3317;43.994;22.878;2022-09-17T08:10:22;99756.94;;;26.07;54.79
6567;BME280;3317;43.994;22.878;2022-09-17T08:12:54;99749.97;;;26.20;53.91
6567;BME280;3317;43.994;22.878;2022-09-17T08:15:24;99758.00;;;26.26;53.77
6567;BME280;3317;43.994;22.878;2022-09-17T08:17:51;99741.34;;;26.26;52.94
6567;BME280;3317;43.994;22.878;2022-09-17T08:20:18;99761.91;;;26.25;53.50
6567;BME280;3317;43.994;22.878;2022-09-17T08:22:46;99778.81;;;26.34;53.77
6567;BME280;3317;43.994;22.878;2022-09-17T08:25:13;99769.94;;;26.32;53.85
6567;BME280;3317;43.994;22.878;2022-09-17T08:27:40;99773.81;;;26.31;53.82
6567;BME280;3317;43.994;22.878;2022-09-17T08:30:08;99780.47;;;26.40;52.93
6567;BME280;3317;43.994;22.878;2022-09-17T08:32:36;99782.94;;;26.47;52.69
6567;BME280;3317;43.994;22.878;2022-09-17T08:35:04;99785.13;;;26.50;52.47
6567;BME280;3317;43.994;22.878;2022-09-17T08:37:31;99768.47;;;26.50;52.27
6567;BME280;3317;43.994;22.878;2022-09-17T08:39:59;99778.16;;;26.58;52.11
6567;BME280;3317;43.994;22.878;2022-09-17T08:42:31;99763.75;;;26.51;51.66
6567;BME280;3317;43.994;22.878;2022-09-17T08:45:05;99790.38;;;26.57;51.95
6567;BME280;3317;43.994;22.878;2022-09-17T08:47:39;99795.13;;;26.56;51.53
6567;BME280;3317;43.994;22.878;2022-09-17T08:50:12;99799.25;;;26.59;51.42
6567;BME280;3317;43.994;22.878;2022-09-17T08:53:09;99797.59;;;26.58;51.28
6567;BME280;3317;43.994;22.878;2022-09-17T08:55:42;99790.69;;;26.55;51.42
6567;BME280;3317;43.994;22.878;2022-09-17T08:58:40;99782.34;;;26.55;52.13
6567;BME280;3317;43.994;22.878;2022-09-17T09:01:37;99764.06;;;26.44;51.20
6567;BME280;3317;43.994;22.878;2022-09-17T09:04:36;99773.44;;;26.53;51.76
6567;BME280;3317;43.994;22.878;2022-09-17T09:07:07;99760.44;;;26.49;51.84
6567;BME280;3317;43.994;22.878;2022-09-17T09:09:37;99761.56;;;26.42;51.83
6567;BME280;3317;43.994;22.878;2022-09-17T09:12:12;99766.53;;;26.46;51.88
6567;BME280;3317;43.994;22.878;2022-09-17T09:14:47;99767.38;;;26.46;52.11
6567;BME280;3317;43.994;22.878;2022-09-17T09:17:18;99750.78;;;26.31;52.33
6567;BME280;3317;43.994;22.878;2022-09-17T09:19:48;99754.06;;;26.38;52.39
6567;BME280;3317;43.994;22.878;2022-09-17T09:22:33;99751.34;;;26.27;52.78
6567;BME280;3317;43.994;22.878;2022-09-17T09:25:17;99757.72;;;26.18;52.71
6567;BME280;3317;43.994;22.878;2022-09-17T09:28:02;99759.69;;;26.17;53.04
6567;BME280;3317;43.994;22.878;2022-09-17T09:30:41;99766.66;;;26.09;53.14
6567;BME280;3317;43.994;22.878;2022-09-17T09:33:15;99770.81;;;26.07;52.91
6567;BME280;3317;43.994;22.878;2022-09-17T09:35:46;99776.09;;;26.03;52.85
6567;BME280;3317;43.994;22.878;2022-09-17T09:38:19;99778.06;;;25.87;53.08
6567;BME280;3317;43.994;22.878;2022-09-17T09:40:53;99791.34;;;26.00;53.45
6567;BME280;3317;43.994;22.878;2022-09-17T09:43:27;99778.31;;;25.96;53.12
6567;BME280;3317;43.994;22.878;2022-09-17T09:46:08;99771.69;;;25.92;53.09
6567;BME280;3317;43.994;22.878;2022-09-17T09:48:42;99768.63;;;25.88;53.16
6567;BME280;3317;43.994;22.878;2022-09-17T09:51:27;99763.63;;;25.85;52.54
6567;BME280;3317;43.994;22.878;2022-09-17T09:54:09;99785.56;;;25.81;54.07
6567;BME280;3317;43.994;22.878;2022-09-17T09:56:55;99789.47;;;25.75;53.81
6567;BME280;3317;43.994;22.878;2022-09-17T09:59:23;99793.06;;;25.70;53.95
6567;BME280;3317;43.994;22.878;2022-09-17T10:01:51;99796.97;;;25.64;54.33
6567;BME280;3317;43.994;22.878;2022-09-17T10:04:20;99810.25;;;25.62;54.74
6567;BME280;3317;43.994;22.878;2022-09-17T10:06:52;99810.00;;;25.58;55.21
6567;BME280;3317;43.994;22.878;2022-09-17T10:09:20;99800.00;;;25.52;55.62
6567;BME280;3317;43.994;22.878;2022-09-17T10:12:01;99780.28;;;25.43;56.28
6567;BME280;3317;43.994;22.878;2022-09-17T10:14:30;99771.13;;;25.38;56.38
6567;BME280;3317;43.994;22.878;2022-09-17T10:17:16;99747.56;;;25.25;57.37
6567;BME280;3317;43.994;22.878;2022-09-17T10:19:44;99729.28;;;25.19;57.29
6567;BME280;3317;43.994;22.878;2022-09-17T10:22:23;99739.25;;;25.14;57.50
6567;BME280;3317;43.994;22.878;2022-09-17T10:24:53;99715.13;;;24.99;57.75
6567;BME280;3317;43.994;22.878;2022-09-17T10:27:23;99723.97;;;25.01;57.76
6567;BME280;3317;43.994;22.878;2022-09-17T10:29:55;99729.53;;;25.01;58.26
6567;BME280;3317;43.994;22.878;2022-09-17T10:32:26;99746.72;;;25.09;57.51
6567;BME280;3317;43.994;22.878;2022-09-17T10:34:59;99727.06;;;25.00;57.54
6567;BME280;3317;43.994;22.878;2022-09-17T10:37:35;99720.94;;;25.03;57.16
6567;BME280;3317;43.994;22.878;2022-09-17T10:40:28;99691.84;;;25.06;57.87
6567;BME280;3317;43.994;22.878;2022-09-17T10:43:20;99704.59;;;25.01;58.02
6567;BME280;3317;43.994;22.878;2022-09-17T10:45:55;99712.59;;;24.98;57.54
6567;BME280;3317;43.994;22.878;2022-09-17T10:48:25;99724.28;;;25.05;57.23
6567;BME280;3317;43.994;22.878;2022-09-17T10:50:55;99725.38;;;25.09;56.89
6567;BME280;3317;43.994;22.878;2022-09-17T10:53:27;99730.38;;;25.12;57.06
6567;BME280;3317;43.994;22.878;2022-09-17T10:56:03;99727.59;;;25.17;57.60
6567;BME280;3317;43.994;22.878;2022-09-17T10:58:43;99712.66;;;25.13;57.73
6567;BME280;3317;43.994;22.878;2022-09-17T11:01:26;99744.78;;;25.25;56.64
6567;BME280;3317;43.994;22.878;2022-09-17T11:04:19;99752.28;;;25.29;56.57
6567;BME280;3317;43.994;22.878;2022-09-17T11:06:57;99764.22;;;25.40;55.88
6567;BME280;3317;43.994;22.878;2022-09-17T11:09:36;99758.66;;;25.40;55.65
6567;BME280;3317;43.994;22.878;2022-09-17T11:12:18;99754.78;;;25.41;56.56
6567;BME280;3317;43.994;22.878;2022-09-17T11:14:52;99781.97;;;25.50;56.63
6567;BME280;3317;43.994;22.878;2022-09-17T11:17:34;99770.06;;;25.49;55.71
6567;BME280;3317;43.994;22.878;2022-09-17T11:20:16;99785.31;;;25.57;56.14
6567;BME280;3317;43.994;22.878;2022-09-17T11:22:57;99778.38;;;25.59;57.01
6567;BME280;3317;43.994;22.878;2022-09-17T11:25:39;99767.53;;;25.63;55.76
6567;BME280;3317;43.994;22.878;2022-09-17T11:28:31;99751.19;;;25.67;55.32
6567;BME280;3317;43.994;22.878;2022-09-17T11:31:11;99739.22;;;25.77;55.33
6567;BME280;3317;43.994;22.878;2022-09-17T11:33:54;99747.03;;;25.69;55.21
6567;BME280;3317;43.994;22.878;2022-09-17T11:36:28;99750.91;;;25.63;56.32
6567;BME280;3317;43.994;22.878;2022-09-17T11:39:03;99746.19;;;25.64;55.17
6567;BME280;3317;43.994;22.878;2022-09-17T11:41:41;99742.03;;;25.66;54.84
6567;BME280;3317;43.994;22.878;2022-09-17T11:44:13;99720.41;;;25.68;54.39
6567;BME280;3317;43.994;22.878;2022-09-17T11:46:46;99712.34;;;25.67;55.14
6567;BME280;3317;43.994;22.878;2022-09-17T11:49:20;99695.72;;;25.62;54.54
6567;BME280;3317;43.994;22.878;2022-09-17T11:51:53;99703.22;;;25.56;54.71
6567;BME280;3317;43.994;22.878;2022-09-17T11:54:24;99699.34;;;25.52;55.17
6567;BME280;3317;43.994;22.878;2022-09-17T11:56:59;99689.06;;;25.42;54.56
6567;BME280;3317;43.994;22.878;2022-09-17T11:59:34;99704.84;;;25.47;54.35
6567;BME280;3317;43.994;22.878;2022-09-17T12:02:13;99701.00;;;25.42;54.59
6567;BME280;3317;43.994;22.878;2022-09-17T12:04:46;99701.53;;;25.34;55.65
6567;BME280;3317;43.994;22.878;2022-09-17T12:07:26;99696.00;;;25.34;56.60
6567;BME280;3317;43.994;22.878;2022-09-17T12:09:59;99686.31;;;25.31;56.48
6567;BME280;3317;43.994;22.878;2022-09-17T12:12:30;99685.47;;;25.31;56.61
6567;BME280;3317;43.994;22.878;2022-09-17T12:15:02;99667.16;;;25.25;57.00
6567;BME280;3317;43.994;22.878;2022-09-17T12:17:36;99668.28;;;25.29;57.13
6567;BME280;3317;43.994;22.878;2022-09-17T12:20:07;99659.13;;;25.23;57.00
6567;BME280;3317;43.994;22.878;2022-09-17T12:22:42;99655.53;;;25.33;57.17
6567;BME280;3317;43.994;22.878;2022-09-17T12:25:12;99644.72;;;25.37;57.16
6567;BME280;3317;43.994;22.878;2022-09-17T12:27:50;99645.81;;;25.36;58.03
6567;BME280;3317;43.994;22.878;2022-09-17T12:30:20;99653.28;;;25.35;58.36
6567;BME280;3317;43.994;22.878;2022-09-17T12:41:58;99664.13;;;25.57;56.49
6567;BME280;3317;43.994;22.878;2022-09-17T12:44:48;99668.25;;;25.60;57.21
6567;BME280;3317;43.994;22.878;2022-09-17T12:47:37;99669.91;;;25.61;57.47
6567;BME280;3317;43.994;22.878;2022-09-17T12:50:17;99675.47;;;25.66;57.37
6567;BME280;3317;43.994;22.878;2022-09-17T12:52:58;99654.66;;;25.64;57.35
6567;BME280;3317;43.994;22.878;2022-09-17T12:55:35;99657.13;;;25.76;57.52
6567;BME280;3317;43.994;22.878;2022-09-17T12:58:14;99654.34;;;25.81;57.21
6567;BME280;3317;43.994;22.878;2022-09-17T13:00:54;99648.19;;;25.89;57.19
6567;BME280;3317;43.994;22.878;2022-09-17T13:03:29;99630.16;;;25.97;56.67
6567;BME280;3317;43.994;22.878;2022-09-17T13:06:29;99632.63;;;26.04;56.89
6567;BME280;3317;43.994;22.878;2022-09-17T13:09:35;99642.84;;;26.13;56.79
6567;BME280;3317;43.994;22.878;2022-09-17T13:12:15;99644.47;;;26.20;57.09
6567;BME280;3317;43.994;22.878;2022-09-17T13:14:57;99630.28;;;26.26;56.86
6567;BME280;3317;43.994;22.878;2022-09-17T13:17:32;99609.78;;;26.22;55.60
6567;BME280;3317;43.994;22.878;2022-09-17T13:20:12;99611.06;;;26.40;55.64
6567;BME280;3317;43.994;22.878;2022-09-17T13:22:44;99611.31;;;26.39;55.55
6567;BME280;3317;43.994;22.878;2022-09-17T13:25:15;99605.56;;;26.30;54.80
6567;BME280;3317;43.994;22.878;2022-09-17T13:27:45;99588.09;;;26.24;54.15
6567;BME280;3317;43.994;22.878;2022-09-17T13:30:15;99572.34;;;26.09;54.17
6567;BME280;3317;43.994;22.878;2022-09-17T13:32:50;99566.22;;;26.07;54.64
6567;BME280;3317;43.994;22.878;2022-09-17T13:35:49;99568.84;;;25.88;54.46
6567;BME280;3317;43.994;22.878;2022-09-17T13:38:20;99585.84;;;25.71;55.10
6567;BME280;3317;43.994;22.878;2022-09-17T13:40:48;99578.97;;;25.58;55.26
6567;BME280;3317;43.994;22.878;2022-09-17T13:43:20;99572.31;;;25.49;54.94
6567;BME280;3317;43.994;22.878;2022-09-17T13:46:21;99571.53;;;25.33;55.81
6567;BME280;3317;43.994;22.878;2022-09-17T13:48:56;99556.56;;;25.28;56.13